KWHP

Details ICAO KWHP (WHP)
Name WHITEMAN
Region United States
Timezone America/Los_Angeles (UTC-7.0)
Plans Departing 52
Arriving 27
Stats Elevation 1,003 ft / 306 m (AMSL)
Location 34.259285° -118.413490°
Runways 1
Magnetic Variation 12.029° E
Sunrise 2018-05-27 12:46:04 UTC / 2018-05-27 05:46:04 Local
Sunset 2018-05-28 02:58:31 UTC / 2018-05-27 19:58:31 Local
Advertisement - Login to hide

Runways

ID Width Length Bearing (true) Bearing (mag) Surface Threshold Offset Overrun Length
12 75 ft / 23 m 4,164 ft / 1,269 m 138.87° 126.84° Asphalt 728 ft / 222 m 49 ft / 15 m
30 75 ft / 23 m 4,164 ft / 1,269 m 318.87° 306.84° Asphalt 479 ft / 146 m 69 ft / 21 m

Map

Weather


0- 5 10 15 20 25 30 35+ Temperature / ° C

Clouds and Precipitation
Forecast for 2018-05-27 18:00 UTC. Updated 5 hours ago

Ground ~20,000 ft ~40,000 ft Winds

METAR

KWHP 272155Z 120010KT 10SM SKC 23/11 A2993

TAF

Not found

Frequencies

Unicom 122.95 MHz CTAF
Tower 135.00 MHz TWR
Approach 134.20 MHz SOCAL APP/DEP
Ground 125.00 MHz GND
Approach 120.40 MHz SOCAL APP/DEP
Warning: Do not use this data for real-world aviation or navigation. No guarantee of current accuracy is given.